createdAt,value
2023-03-02T00:01:06.335Z,5.82
2023-03-02T00:03:40.453Z,5.77
2023-03-02T00:06:13.334Z,5.75
2023-03-02T00:08:47.384Z,5.69
2023-03-02T00:11:19.647Z,5.65
2023-03-02T00:13:51.922Z,5.64
2023-03-02T00:16:24.277Z,5.62
2023-03-02T00:18:56.569Z,5.57
2023-03-02T00:21:29.019Z,5.54
2023-03-02T00:24:01.398Z,5.53
2023-03-02T00:26:36.345Z,5.48
2023-03-02T00:29:08.927Z,5.44
2023-03-02T00:31:41.330Z,5.43
2023-03-02T00:34:13.794Z,5.42
2023-03-02T00:36:49.632Z,5.42
2023-03-02T00:39:22.068Z,5.39
2023-03-02T00:41:54.441Z,5.34
2023-03-02T00:44:26.790Z,5.22
2023-03-02T00:46:59.256Z,5.15
2023-03-02T00:49:31.669Z,5.13
2023-03-02T00:52:04.575Z,5.09
2023-03-02T00:54:37.042Z,5.03
2023-03-02T00:57:09.399Z,5.01
2023-03-02T00:59:42.363Z,4.99
2023-03-02T01:02:14.860Z,4.93
2023-03-02T01:04:48.387Z,4.89
2023-03-02T01:07:22.476Z,4.87
2023-03-02T01:09:55.009Z,4.85
2023-03-02T01:12:27.347Z,4.81
2023-03-02T01:14:59.832Z,4.82
2023-03-02T01:17:32.311Z,4.81
2023-03-02T01:20:05.791Z,4.79
2023-03-02T01:22:38.109Z,4.76
2023-03-02T01:25:11.197Z,4.71
2023-03-02T01:27:43.613Z,4.64
2023-03-02T01:30:17.075Z,4.60
2023-03-02T01:32:49.582Z,4.52
2023-03-02T01:35:22.297Z,4.50
2023-03-02T01:37:54.806Z,4.50
2023-03-02T01:40:27.269Z,4.43
2023-03-02T01:43:02.550Z,4.33
2023-03-02T01:46:01.111Z,4.23
2023-03-02T01:48:38.513Z,4.16
2023-03-02T01:51:16.055Z,4.09
2023-03-02T01:53:50.702Z,4.11
2023-03-02T01:56:26.340Z,4.13
2023-03-02T01:59:02.638Z,4.12
2023-03-02T02:01:36.873Z,4.11
2023-03-02T02:04:09.644Z,4.06
2023-03-02T02:06:45.929Z,4.04
2023-03-02T02:09:21.958Z,4.03
2023-03-02T02:11:52.560Z,4.03
2023-03-02T02:14:25.760Z,4.07
2023-03-02T02:16:58.340Z,4.07
2023-03-02T02:19:44.416Z,4.06
2023-03-02T02:22:22.756Z,4.03
2023-03-02T02:24:58.740Z,3.99
2023-03-02T02:27:34.290Z,3.97
2023-03-02T02:30:12.780Z,3.96
2023-03-02T02:32:49.100Z,4.00
2023-03-02T02:35:27.453Z,4.02
2023-03-02T02:38:04.371Z,4.02
2023-03-02T02:40:51.115Z,3.94
2023-03-02T02:43:25.266Z,3.88
2023-03-02T02:46:00.538Z,3.86
2023-03-02T02:48:35.906Z,3.83
2023-03-02T02:51:10.585Z,3.82
2023-03-02T02:53:49.132Z,3.82
2023-03-02T02:56:21.791Z,3.73
2023-03-02T02:58:57.233Z,3.63
2023-03-02T03:01:29.997Z,3.56
2023-03-02T03:04:05.930Z,3.57
2023-03-02T03:06:42.752Z,3.57
2023-03-02T03:09:15.233Z,3.56
2023-03-02T03:11:50.977Z,3.56
2023-03-02T03:14:28.195Z,3.54
2023-03-02T03:17:00.539Z,3.49
2023-03-02T03:19:34.197Z,3.42
2023-03-02T03:22:06.640Z,3.42
2023-03-02T03:24:39.373Z,3.41
2023-03-02T03:27:13.646Z,3.41
2023-03-02T03:29:48.934Z,3.44
2023-03-02T03:32:22.011Z,3.40
2023-03-02T03:34:54.487Z,3.38
2023-03-02T03:37:26.998Z,3.35
2023-03-02T03:39:59.384Z,3.32
2023-03-02T03:42:32.757Z,3.31
2023-03-02T03:45:05.226Z,3.31
2023-03-02T03:47:37.680Z,3.32
2023-03-02T03:50:11.465Z,3.33
2023-03-02T03:52:43.903Z,3.34
2023-03-02T03:55:16.512Z,3.35
2023-03-02T03:57:48.841Z,3.35
2023-03-02T04:00:24.348Z,3.32
2023-03-02T04:02:57.132Z,3.28
2023-03-02T04:05:31.498Z,3.24
2023-03-02T04:08:04.141Z,3.19
2023-03-02T04:10:37.344Z,3.18
2023-03-02T04:13:10.090Z,3.16
2023-03-02T04:15:46.545Z,3.14
2023-03-02T04:18:19.413Z,3.15
2023-03-02T04:20:51.692Z,3.17
2023-03-02T04:23:23.911Z,3.19
2023-03-02T04:25:56.172Z,3.18
2023-03-02T04:28:28.610Z,3.14
2023-03-02T04:31:00.932Z,3.12
2023-03-02T04:33:33.358Z,3.12
2023-03-02T04:36:06.020Z,3.12
2023-03-02T04:38:38.281Z,3.09
2023-03-02T04:41:10.675Z,3.04
2023-03-02T04:43:43.097Z,3.01
2023-03-02T04:46:20.459Z,3.01
2023-03-02T04:48:53.192Z,3.03
2023-03-02T04:51:28.999Z,3.05
2023-03-02T04:54:07.420Z,3.06
2023-03-02T04:56:39.824Z,3.08
2023-03-02T04:59:12.195Z,3.09
2023-03-02T05:01:44.672Z,3.07
2023-03-02T05:04:17.304Z,3.06
2023-03-02T05:06:49.779Z,2.97
2023-03-02T05:09:27.501Z,2.91
2023-03-02T05:12:01.700Z,2.87
2023-03-02T05:14:34.098Z,2.87
2023-03-02T05:17:06.517Z,2.85
2023-03-02T05:19:39.574Z,2.87
2023-03-02T05:22:11.965Z,2.88
2023-03-02T05:24:44.300Z,2.86
2023-03-02T05:27:16.730Z,2.82
2023-03-02T05:29:49.009Z,2.79
2023-03-02T05:32:21.356Z,2.75
2023-03-02T05:34:53.674Z,2.74
2023-03-02T05:37:26.065Z,2.74
2023-03-02T05:39:58.484Z,2.76
2023-03-02T05:42:30.700Z,2.80
2023-03-02T05:45:03.124Z,2.81
2023-03-02T05:47:35.526Z,2.82
2023-03-02T05:50:09.398Z,2.84
2023-03-02T05:52:41.782Z,2.87
2023-03-02T05:55:15.742Z,2.91
2023-03-02T05:57:49.453Z,2.97
2023-03-02T06:00:23.562Z,3.03
2023-03-02T06:02:57.276Z,3.08
2023-03-02T06:05:30.190Z,3.10
2023-03-02T06:08:02.935Z,3.11
2023-03-02T06:10:36.090Z,3.12
2023-03-02T06:13:08.505Z,3.11
2023-03-02T06:15:40.969Z,3.12
2023-03-02T06:18:13.951Z,3.14
2023-03-02T06:20:46.293Z,3.17
2023-03-02T06:23:18.691Z,3.19
2023-03-02T06:25:51.143Z,3.20
2023-03-02T06:28:23.562Z,3.18
2023-03-02T06:30:56.372Z,3.23
2023-03-02T06:33:28.852Z,3.25
2023-03-02T06:36:01.416Z,3.29
2023-03-02T06:38:33.880Z,3.29
2023-03-02T06:41:06.432Z,3.33
2023-03-02T06:43:38.761Z,3.38
2023-03-02T06:46:11.372Z,3.45
2023-03-02T06:48:43.920Z,3.51
2023-03-02T06:51:16.338Z,3.57
2023-03-02T06:53:48.665Z,3.59
2023-03-02T06:56:21.136Z,3.62
2023-03-02T06:58:54.050Z,3.64
2023-03-02T07:01:26.440Z,3.65
2023-03-02T07:03:59.296Z,3.67
2023-03-02T07:06:31.794Z,3.64
2023-03-02T07:09:04.602Z,3.62
2023-03-02T07:11:36.895Z,3.66
2023-03-02T07:14:09.504Z,3.67
2023-03-02T07:16:42.119Z,3.66
2023-03-02T07:19:15.997Z,3.67
2023-03-02T07:21:48.348Z,3.71
2023-03-02T07:24:20.688Z,3.74
2023-03-02T07:26:53.184Z,3.77
2023-03-02T07:29:25.451Z,3.77
2023-03-02T07:32:00.633Z,3.78
2023-03-02T07:34:33.176Z,3.79
2023-03-02T07:37:05.676Z,3.82
2023-03-02T07:39:38.181Z,3.84
2023-03-02T07:42:13.008Z,3.85
2023-03-02T07:44:45.383Z,3.86
2023-03-02T07:47:17.858Z,3.89
2023-03-02T07:49:50.204Z,3.90
2023-03-02T07:52:22.621Z,3.92
2023-03-02T07:54:55.021Z,3.94
2023-03-02T07:57:27.394Z,3.98
2023-03-02T07:59:59.741Z,4.05
2023-03-02T08:02:33.796Z,4.08
2023-03-02T08:05:06.773Z,4.08
2023-03-02T08:07:40.036Z,4.11
2023-03-02T08:10:14.110Z,4.14
2023-03-02T08:12:46.619Z,4.21
2023-03-02T08:15:19.158Z,4.30
2023-03-02T08:17:51.559Z,4.39
2023-03-02T08:20:23.922Z,4.46
2023-03-02T08:22:56.291Z,4.50
2023-03-02T08:25:29.082Z,4.52
2023-03-02T08:28:01.553Z,4.60
2023-03-02T08:30:33.903Z,4.67
2023-03-02T08:33:07.316Z,4.73
2023-03-02T08:35:39.950Z,4.78
2023-03-02T08:38:12.288Z,4.80
2023-03-02T08:40:44.638Z,4.78
2023-03-02T08:43:17.047Z,4.81
2023-03-02T08:45:53.941Z,4.89
2023-03-02T08:48:27.488Z,4.98
2023-03-02T08:51:01.870Z,5.05
2023-03-02T08:53:38.013Z,5.11
2023-03-02T08:56:19.101Z,5.13
2023-03-02T08:58:53.514Z,5.11
2023-03-02T09:01:28.887Z,5.11
2023-03-02T09:04:02.207Z,5.09
2023-03-02T09:06:37.258Z,5.22
2023-03-02T09:09:12.117Z,5.34
2023-03-02T09:11:45.060Z,5.38
2023-03-02T09:14:17.468Z,5.37
2023-03-02T09:16:49.972Z,5.42
2023-03-02T09:19:22.374Z,5.51
2023-03-02T09:21:54.765Z,5.48
2023-03-02T09:24:27.218Z,5.43
2023-03-02T09:26:59.665Z,5.41
2023-03-02T09:29:32.218Z,5.40
2023-03-02T09:32:04.898Z,5.35
2023-03-02T09:34:37.912Z,5.39
2023-03-02T09:37:10.248Z,5.42
2023-03-02T09:39:42.754Z,5.44
2023-03-02T09:42:43.179Z,5.52
2023-03-02T09:45:40.847Z,5.56
2023-03-02T09:48:22.722Z,5.60
2023-03-02T09:51:06.299Z,5.61
2023-03-02T09:53:48.930Z,5.64
2023-03-02T09:56:23.014Z,5.64
2023-03-02T09:59:00.801Z,5.68
2023-03-02T10:01:45.935Z,5.78
2023-03-02T10:04:25.070Z,5.89
2023-03-02T10:07:03.136Z,5.92
2023-03-02T10:09:35.502Z,5.95
2023-03-02T10:12:25.909Z,6.00
2023-03-02T10:15:04.541Z,6.07
2023-03-02T10:17:51.979Z,6.13
2023-03-02T10:20:34.257Z,6.16
2023-03-02T10:23:22.095Z,6.20
2023-03-02T10:26:02.431Z,6.18
2023-03-02T10:28:39.668Z,6.20
2023-03-02T10:31:26.016Z,6.23
2023-03-02T10:33:58.976Z,6.26
2023-03-02T10:36:36.155Z,6.23
2023-03-02T10:39:16.348Z,6.14
2023-03-02T10:41:52.958Z,6.02
2023-03-02T10:44:30.167Z,6.02
2023-03-02T10:47:02.840Z,6.07
2023-03-02T10:49:39.501Z,6.13
2023-03-02T10:52:17.171Z,6.17
2023-03-02T10:54:49.924Z,6.18
2023-03-02T10:57:39.031Z,6.18
2023-03-02T11:00:26.041Z,6.16
2023-03-02T11:03:01.326Z,6.16
2023-03-02T11:05:36.508Z,6.19
2023-03-02T11:08:18.363Z,6.19
2023-03-02T11:11:00.536Z,6.11
2023-03-02T11:13:36.633Z,6.06
2023-03-02T11:16:28.613Z,6.12
2023-03-02T11:19:05.032Z,6.16
2023-03-02T11:21:43.033Z,6.18
2023-03-02T11:24:19.999Z,6.16
2023-03-02T11:26:56.227Z,6.10
2023-03-02T11:29:35.414Z,6.06
2023-03-02T11:32:14.665Z,6.07
2023-03-02T11:34:51.820Z,6.09
2023-03-02T11:37:27.321Z,6.06
2023-03-02T11:40:14.706Z,6.04
2023-03-02T11:42:48.368Z,6.07
2023-03-02T11:45:25.010Z,6.11
2023-03-02T11:48:03.706Z,6.11
2023-03-02T11:50:42.406Z,6.10
2023-03-02T11:53:19.335Z,6.16
2023-03-02T11:55:52.882Z,6.20
2023-03-02T11:58:28.266Z,6.21
2023-03-02T12:01:01.290Z,6.24
2023-03-02T12:03:45.096Z,6.15
2023-03-02T12:06:36.717Z,6.14
2023-03-02T12:09:34.599Z,6.02
2023-03-02T12:12:41.015Z,6.02
2023-03-02T12:15:39.314Z,6.07
2023-03-02T12:18:53.188Z,6.11
2023-03-02T12:21:27.241Z,6.15
2023-03-02T12:24:04.173Z,6.19
2023-03-02T12:26:38.943Z,6.20
2023-03-02T12:29:25.647Z,6.26
2023-03-02T12:31:57.598Z,6.30
2023-03-02T12:34:39.334Z,6.31
2023-03-02T12:37:18.897Z,6.29
2023-03-02T12:40:24.896Z,6.18
2023-03-02T12:43:20.508Z,6.11
2023-03-02T12:46:14.013Z,6.06
2023-03-02T12:48:49.700Z,6.07
2023-03-02T12:51:24.639Z,6.10
2023-03-02T12:54:07.964Z,6.15
2023-03-02T12:56:40.372Z,6.15
2023-03-02T12:59:24.235Z,6.14
2023-03-02T13:02:07.626Z,6.16
2023-03-02T13:04:40.004Z,6.12
2023-03-02T13:07:21.417Z,6.06
2023-03-02T13:09:57.124Z,6.05
2023-03-02T13:12:30.788Z,6.08
2023-03-02T13:15:03.301Z,6.06
2023-03-02T13:17:35.735Z,6.06
2023-03-02T13:20:12.173Z,6.06
2023-03-02T13:22:44.740Z,6.04
2023-03-02T13:25:25.991Z,6.00
2023-03-02T13:28:02.554Z,5.97
2023-03-02T13:30:37.292Z,6.02
2023-03-02T13:33:23.786Z,6.02
2023-03-02T13:35:54.661Z,5.92
2023-03-02T13:38:31.699Z,5.83
2023-03-02T13:41:04.672Z,5.75
2023-03-02T13:43:43.562Z,5.75
2023-03-02T13:46:31.473Z,5.75
2023-03-02T13:49:11.052Z,5.76
2023-03-02T13:51:46.645Z,5.78
2023-03-02T13:54:23.649Z,5.76
2023-03-02T13:56:58.344Z,5.73
2023-03-02T13:59:32.055Z,5.71
2023-03-02T14:02:04.397Z,5.70
2023-03-02T14:04:36.996Z,5.70
2023-03-02T14:07:09.362Z,5.72
2023-03-02T14:09:41.760Z,5.69
2023-03-02T14:12:23.404Z,5.66
2023-03-02T14:14:58.134Z,5.68
2023-03-02T14:17:30.673Z,5.68
2023-03-02T14:20:03.123Z,5.66
2023-03-02T14:22:35.715Z,5.65
2023-03-02T14:25:09.987Z,5.64
2023-03-02T14:27:43.997Z,5.60
2023-03-02T14:30:20.171Z,5.61
2023-03-02T14:32:52.596Z,5.64
2023-03-02T14:35:26.652Z,5.67
2023-03-02T14:37:58.937Z,5.71
2023-03-02T14:40:31.476Z,5.74
2023-03-02T14:43:03.758Z,5.77
2023-03-02T14:45:36.120Z,5.81
2023-03-02T14:48:08.767Z,5.85
2023-03-02T14:50:45.023Z,5.89
2023-03-02T14:53:20.906Z,5.92
2023-03-02T14:55:51.609Z,5.97
2023-03-02T14:58:30.820Z,5.95
2023-03-02T15:01:03.666Z,5.90
2023-03-02T15:03:36.326Z,5.88
2023-03-02T15:06:20.500Z,5.85
2023-03-02T15:08:53.078Z,5.81
2023-03-02T15:11:26.609Z,5.78
2023-03-02T15:13:59.601Z,5.75
2023-03-02T15:16:31.931Z,5.78
2023-03-02T15:19:04.200Z,5.82
2023-03-02T15:21:37.337Z,5.83
2023-03-02T15:24:10.435Z,5.84
2023-03-02T15:26:42.909Z,5.85
2023-03-02T15:29:15.313Z,5.87
2023-03-02T15:31:48.063Z,5.85
2023-03-02T15:34:20.497Z,5.84
2023-03-02T15:36:52.840Z,5.86
2023-03-02T15:39:25.472Z,5.89
2023-03-02T15:41:57.735Z,5.94
2023-03-02T15:44:30.183Z,5.94
2023-03-02T15:47:02.955Z,5.94
2023-03-02T15:49:35.243Z,5.95
2023-03-02T15:52:07.819Z,5.98
2023-03-02T15:54:40.238Z,5.96
2023-03-02T15:57:12.751Z,6.01
2023-03-02T15:59:46.396Z,6.03
2023-03-02T16:02:18.774Z,6.01
2023-03-02T16:04:51.046Z,6.03
2023-03-02T16:07:23.326Z,6.02
2023-03-02T16:09:55.719Z,6.02
2023-03-02T16:12:28.684Z,6.02
2023-03-02T16:15:01.040Z,6.03
2023-03-02T16:17:33.421Z,6.03
2023-03-02T16:20:06.590Z,6.03
2023-03-02T16:22:38.995Z,6.04
2023-03-02T16:25:12.218Z,6.04
2023-03-02T16:27:47.718Z,6.04
2023-03-02T16:30:23.153Z,6.05
2023-03-02T16:33:00.310Z,6.01
2023-03-02T16:35:34.306Z,6.01
2023-03-02T16:38:08.045Z,6.06
2023-03-02T16:40:41.137Z,6.07
2023-03-02T16:43:13.543Z,6.09
2023-03-02T16:45:46.345Z,6.09
2023-03-02T16:48:18.846Z,6.10
2023-03-02T16:50:57.921Z,6.09
2023-03-02T16:53:30.330Z,6.10
2023-03-02T16:56:02.814Z,6.08
2023-03-02T16:58:38.333Z,6.07
2023-03-02T17:01:12.351Z,6.06
2023-03-02T17:03:45.743Z,6.04
2023-03-02T17:06:20.325Z,6.04
2023-03-02T17:08:52.832Z,6.03
2023-03-02T17:11:25.293Z,6.00
2023-03-02T17:13:57.607Z,5.98
2023-03-02T17:16:30.151Z,5.92
2023-03-02T17:19:02.735Z,5.87
2023-03-02T17:21:35.116Z,5.83
2023-03-02T17:24:07.861Z,5.81
2023-03-02T17:26:40.143Z,5.80
2023-03-02T17:29:12.499Z,5.78
2023-03-02T17:31:44.937Z,5.76
2023-03-02T17:34:17.592Z,5.69
2023-03-02T17:36:49.978Z,5.72
2023-03-02T17:39:22.347Z,5.72
2023-03-02T17:41:55.471Z,5.70
2023-03-02T17:44:27.945Z,5.69
2023-03-02T17:47:00.356Z,5.64
2023-03-02T17:49:32.890Z,5.68
2023-03-02T17:52:05.555Z,5.68
2023-03-02T17:54:37.901Z,5.66
2023-03-02T17:57:10.744Z,5.60
2023-03-02T17:59:43.150Z,5.65
2023-03-02T18:02:15.490Z,5.66
2023-03-02T18:04:47.842Z,5.67
2023-03-02T18:07:20.122Z,5.68
2023-03-02T18:09:52.365Z,5.69
2023-03-02T18:12:24.569Z,5.69
2023-03-02T18:14:57.101Z,5.70
2023-03-02T18:17:29.484Z,5.73
2023-03-02T18:20:01.873Z,5.75
2023-03-02T18:22:34.149Z,5.76
2023-03-02T18:25:07.657Z,5.77
2023-03-02T18:27:40.002Z,5.79
2023-03-02T18:30:14.458Z,5.82
2023-03-02T18:32:46.729Z,5.84
2023-03-02T18:35:20.435Z,5.84
2023-03-02T18:37:54.281Z,5.84
2023-03-02T18:40:26.771Z,5.83
2023-03-02T18:42:59.146Z,5.83
2023-03-02T18:45:33.134Z,5.85
2023-03-02T18:48:06.414Z,5.88
2023-03-02T18:50:39.793Z,5.88
2023-03-02T18:53:13.051Z,5.90
2023-03-02T18:55:45.495Z,5.91
2023-03-02T18:58:21.546Z,5.89
2023-03-02T19:00:55.723Z,5.93
2023-03-02T19:03:28.462Z,5.95
2023-03-02T19:06:00.969Z,5.97
2023-03-02T19:08:33.853Z,5.97
2023-03-02T19:11:07.013Z,5.98
2023-03-02T19:13:39.506Z,6.00
2023-03-02T19:16:12.478Z,6.02
2023-03-02T19:18:44.849Z,6.00
2023-03-02T19:21:17.287Z,5.99
2023-03-02T19:23:49.625Z,5.98
2023-03-02T19:26:21.988Z,5.98
2023-03-02T19:28:55.098Z,5.99
2023-03-02T19:31:27.707Z,6.00
2023-03-02T19:34:00.620Z,5.99
2023-03-02T19:36:32.969Z,5.98
2023-03-02T19:39:05.364Z,5.96
2023-03-02T19:41:37.892Z,5.95
2023-03-02T19:44:10.793Z,5.97
2023-03-02T19:46:43.164Z,5.99
2023-03-02T19:49:15.834Z,6.00
2023-03-02T19:51:48.297Z,6.03
2023-03-02T19:54:20.685Z,6.04
2023-03-02T19:56:54.230Z,6.04
2023-03-02T19:59:27.368Z,6.04
2023-03-02T20:01:59.712Z,6.05
2023-03-02T20:04:32.817Z,6.06
2023-03-02T20:07:06.021Z,6.05
2023-03-02T20:09:38.498Z,6.01
2023-03-02T20:12:11.774Z,6.00
2023-03-02T20:14:48.749Z,6.01
2023-03-02T20:17:21.891Z,6.00
2023-03-02T20:19:56.142Z,5.99
2023-03-02T20:22:28.384Z,5.97
2023-03-02T20:25:00.664Z,5.94
2023-03-02T20:27:33.287Z,5.95
2023-03-02T20:30:07.938Z,5.97
2023-03-02T20:32:40.481Z,5.97
2023-03-02T20:35:14.693Z,5.97
2023-03-02T20:37:47.860Z,5.96
2023-03-02T20:40:22.704Z,5.92
2023-03-02T20:42:55.841Z,5.90
2023-03-02T20:45:28.586Z,5.85
2023-03-02T20:48:01.559Z,5.81
2023-03-02T20:50:36.448Z,5.78
2023-03-02T20:53:09.384Z,5.77
2023-03-02T20:55:41.963Z,5.77
2023-03-02T20:58:14.745Z,5.78
2023-03-02T21:00:48.755Z,5.79
2023-03-02T21:03:21.179Z,5.80
2023-03-02T21:05:53.846Z,5.81
2023-03-02T21:08:26.370Z,5.84
2023-03-02T21:10:58.639Z,5.85
2023-03-02T21:13:31.019Z,5.85
2023-03-02T21:16:03.580Z,5.85
2023-03-02T21:18:36.233Z,5.88
2023-03-02T21:21:09.279Z,5.90
2023-03-02T21:23:42.122Z,5.93
2023-03-02T21:26:16.329Z,5.95
2023-03-02T21:28:49.295Z,5.95
2023-03-02T21:31:21.648Z,5.94
2023-03-02T21:33:54.169Z,5.93
2023-03-02T21:36:27.402Z,5.93
2023-03-02T21:38:59.957Z,5.94
2023-03-02T21:41:32.308Z,5.92
2023-03-02T21:44:05.862Z,5.91
2023-03-02T21:46:39.593Z,5.90
2023-03-02T21:49:12.952Z,5.87
2023-03-02T21:51:45.710Z,5.83
2023-03-02T21:54:18.587Z,5.80
2023-03-02T21:56:50.990Z,5.80
2023-03-02T21:59:23.365Z,5.75
2023-03-02T22:01:55.922Z,5.70
2023-03-02T22:04:28.287Z,5.67
2023-03-02T22:07:01.008Z,5.63
2023-03-02T22:09:33.416Z,5.61
2023-03-02T22:12:12.561Z,5.59
2023-03-02T22:14:45.154Z,5.56
2023-03-02T22:17:20.529Z,5.54
2023-03-02T22:19:52.424Z,5.51
2023-03-02T22:22:30.201Z,5.46
2023-03-02T22:25:02.532Z,5.43
2023-03-02T22:27:36.339Z,5.43
2023-03-02T22:30:20.488Z,5.38
2023-03-02T22:32:53.066Z,5.35
2023-03-02T22:35:28.649Z,5.33
2023-03-02T22:38:06.623Z,5.29
2023-03-02T22:40:41.377Z,5.27
2023-03-02T22:43:21.639Z,5.30
2023-03-02T22:45:55.631Z,5.33
2023-03-02T22:48:29.566Z,5.34
2023-03-02T22:51:11.192Z,5.34
2023-03-02T22:53:47.833Z,5.35
2023-03-02T22:56:30.089Z,5.35
2023-03-02T22:59:10.471Z,5.33
2023-03-02T23:01:45.243Z,5.30
2023-03-02T23:04:21.899Z,5.30
2023-03-02T23:06:55.513Z,5.31
2023-03-02T23:09:30.564Z,5.34
2023-03-02T23:12:10.843Z,5.34
2023-03-02T23:14:49.087Z,5.33
2023-03-02T23:17:28.696Z,5.32
2023-03-02T23:20:01.318Z,5.31
2023-03-02T23:22:33.890Z,5.26
2023-03-02T23:25:07.122Z,5.23
2023-03-02T23:27:39.379Z,5.21
2023-03-02T23:30:17.863Z,5.19
2023-03-02T23:32:50.175Z,5.18
2023-03-02T23:35:22.679Z,5.22
2023-03-02T23:37:55.171Z,5.23
2023-03-02T23:40:27.593Z,5.25
2023-03-02T23:42:59.997Z,5.24
2023-03-02T23:45:32.628Z,5.19
2023-03-02T23:48:05.565Z,5.16
2023-03-02T23:50:37.895Z,5.14
2023-03-02T23:53:10.265Z,5.12
2023-03-02T23:55:48.075Z,5.12
2023-03-02T23:58:20.490Z,5.11
